D420KT RJTT-RJNW
Flight info
| Callsign | D420KT |
|---|---|
| Flight time | 0h 53m |
| Altitude | 36000 |
| Route | BEKLA Y885 AZUMI/N0421F350 V57 HAPPO |
| Aircraft | HDJT/L-SABDGRWY/H |
Departure
| Time | 2026-05-04 09:51 |
|---|---|
| Airport | Tokyo Haneda International Airport (RJTT) |
Arrival
| Time | 2026-05-04 10:44 |
|---|---|
| Airport | Noto Satoyama Airport (RJNW) |
| Time | Latitude | Longitude | Altitude | Speed | Heading |
|---|---|---|---|---|---|
| 2026-05-04 09:35 | 35.54844 | 139.77166 | 17 ft | 0 kts | 329° |
| 2026-05-04 09:41 | 35.54851 | 139.77170 | 17 ft | 3 kts | 73° |
| 2026-05-04 09:42 | 35.54788 | 139.77208 | -10 ft | 0 kts | 77° |
| 2026-05-04 09:43 | 35.54791 | 139.77227 | 17 ft | 9 kts | 78° |
| 2026-05-04 09:43 | 35.54821 | 139.77285 | 17 ft | 8 kts | 50° |
| 2026-05-04 09:43 | 35.54874 | 139.77312 | 17 ft | 12 kts | 355° |
| 2026-05-04 09:43 | 35.54951 | 139.77266 | 17 ft | 12 kts | 329° |
| 2026-05-04 09:44 | 35.55023 | 139.77215 | 17 ft | 12 kts | 330° |
| 2026-05-04 09:44 | 35.55092 | 139.77166 | 17 ft | 11 kts | 329° |
| 2026-05-04 09:44 | 35.55179 | 139.77106 | 17 ft | 21 kts | 330° |
| 2026-05-04 09:46 | 35.56519 | 139.78041 | 17 ft | 30 kts | 61° |
| 2026-05-04 09:46 | 35.56548 | 139.78099 | 17 ft | 0 kts | 9° |
| 2026-05-04 09:46 | 35.56566 | 139.78055 | 17 ft | 10 kts | 287° |
| 2026-05-04 09:47 | 35.56585 | 139.77975 | 17 ft | 10 kts | 287° |
| 2026-05-04 09:47 | 35.56619 | 139.77912 | 17 ft | 8 kts | 304° |
| 2026-05-04 09:49 | 35.56654 | 139.77847 | 17 ft | 0 kts | 304° |
| 2026-05-04 09:51 | 35.55141 | 139.76370 | 157 ft | 172 kts | 213° |
| 2026-05-04 09:51 | 35.54208 | 139.75638 | 927 ft | 155 kts | 214° |
| 2026-05-04 09:51 | 35.53233 | 139.74960 | 1351 ft | 170 kts | 201° |
| 2026-05-04 09:51 | 35.52006 | 139.75031 | 1773 ft | 190 kts | 160° |
| 2026-05-04 09:52 | 35.50794 | 139.75712 | 2297 ft | 192 kts | 162° |
| 2026-05-04 09:52 | 35.49490 | 139.76008 | 2855 ft | 191 kts | 181° |
| 2026-05-04 09:52 | 35.48146 | 139.76028 | 3440 ft | 197 kts | 182° |
| 2026-05-04 09:52 | 35.46749 | 139.76063 | 4091 ft | 205 kts | 181° |
| 2026-05-04 09:53 | 35.45302 | 139.76126 | 4771 ft | 211 kts | 179° |
| 2026-05-04 09:53 | 35.43815 | 139.76134 | 5464 ft | 216 kts | 182° |
| 2026-05-04 09:53 | 35.42292 | 139.76140 | 6159 ft | 221 kts | 180° |
| 2026-05-04 09:53 | 35.40791 | 139.75840 | 6871 ft | 219 kts | 210° |
| 2026-05-04 09:54 | 35.39650 | 139.74685 | 7680 ft | 211 kts | 231° |
| 2026-05-04 09:54 | 35.38602 | 139.73479 | 8582 ft | 208 kts | 225° |
| 2026-05-04 09:54 | 35.37444 | 139.72397 | 9524 ft | 205 kts | 222° |
| 2026-05-04 09:54 | 35.36304 | 139.71378 | 10366 ft | 200 kts | 223° |
| 2026-05-04 09:55 | 35.35206 | 139.70374 | 11263 ft | 193 kts | 224° |
| 2026-05-04 09:55 | 35.34138 | 139.69389 | 12028 ft | 195 kts | 224° |
| 2026-05-04 09:55 | 35.33051 | 139.68387 | 12536 ft | 194 kts | 224° |
| 2026-05-04 09:55 | 35.31984 | 139.67411 | 13063 ft | 189 kts | 224° |
| 2026-05-04 09:56 | 35.30956 | 139.66469 | 13564 ft | 185 kts | 224° |
| 2026-05-04 09:56 | 35.29932 | 139.65527 | 14023 ft | 185 kts | 224° |
| 2026-05-04 09:56 | 35.28900 | 139.64578 | 14490 ft | 186 kts | 224° |
| 2026-05-04 09:56 | 35.27903 | 139.63575 | 14961 ft | 185 kts | 229° |
| 2026-05-04 09:57 | 35.27013 | 139.62437 | 15448 ft | 185 kts | 233° |
| 2026-05-04 09:57 | 35.26231 | 139.61179 | 15936 ft | 186 kts | 238° |
| 2026-05-04 09:57 | 35.25569 | 139.59816 | 16443 ft | 188 kts | 242° |
| 2026-05-04 09:57 | 35.25032 | 139.58347 | 16947 ft | 190 kts | 247° |
| 2026-05-04 09:58 | 35.24637 | 139.56818 | 17447 ft | 193 kts | 252° |
| 2026-05-04 09:58 | 35.24384 | 139.55185 | 17957 ft | 197 kts | 256° |
| 2026-05-04 09:58 | 35.24291 | 139.53493 | 18407 ft | 202 kts | 261° |
| 2026-05-04 10:00 | 35.29519 | 139.41713 | 21746 ft | 292 kts | 309° |
| 2026-05-04 10:00 | 35.31278 | 139.40403 | 22259 ft | 299 kts | 310° |
| 2026-05-04 10:02 | 35.40610 | 139.28715 | 24634 ft | 311 kts | 296° |
| 2026-05-04 10:04 | 35.51785 | 139.14635 | 26515 ft | 338 kts | 297° |
| 2026-05-04 10:04 | 35.53417 | 139.12584 | 26883 ft | 334 kts | 297° |
| 2026-05-04 10:04 | 35.55027 | 139.10547 | 27231 ft | 332 kts | 296° |
| 2026-05-04 10:04 | 35.56635 | 139.08509 | 27524 ft | 332 kts | 297° |
| 2026-05-04 10:05 | 35.58250 | 139.06460 | 27845 ft | 336 kts | 297° |
| 2026-05-04 10:05 | 35.59885 | 139.04393 | 28082 ft | 338 kts | 296° |
| 2026-05-04 10:05 | 35.61530 | 139.02317 | 28344 ft | 339 kts | 297° |
| 2026-05-04 10:05 | 35.63178 | 139.00232 | 28612 ft | 341 kts | 297° |
| 2026-05-04 10:06 | 35.64834 | 138.98130 | 28883 ft | 343 kts | 296° |
| 2026-05-04 10:06 | 35.66495 | 138.96025 | 29153 ft | 344 kts | 296° |
| 2026-05-04 10:06 | 35.68164 | 138.93910 | 29432 ft | 345 kts | 297° |
| 2026-05-04 10:08 | 35.78147 | 138.81220 | 30893 ft | 338 kts | 296° |
| 2026-05-04 10:08 | 35.79778 | 138.79136 | 31129 ft | 337 kts | 296° |
| 2026-05-04 10:08 | 35.81405 | 138.77060 | 31373 ft | 337 kts | 296° |
| 2026-05-04 10:08 | 35.83038 | 138.74977 | 31662 ft | 338 kts | 296° |
| 2026-05-04 10:09 | 35.84667 | 138.72900 | 31917 ft | 336 kts | 295° |
| 2026-05-04 10:09 | 35.86284 | 138.70842 | 32150 ft | 333 kts | 295° |
| 2026-05-04 10:09 | 35.87884 | 138.68793 | 32405 ft | 331 kts | 295° |
| 2026-05-04 10:09 | 35.89477 | 138.66750 | 32660 ft | 330 kts | 295° |
| 2026-05-04 10:10 | 35.91067 | 138.64712 | 32917 ft | 330 kts | 295° |
| 2026-05-04 10:10 | 35.92657 | 138.62677 | 33171 ft | 329 kts | 295° |
| 2026-05-04 10:10 | 35.94243 | 138.60651 | 33433 ft | 327 kts | 295° |
| 2026-05-04 10:10 | 35.95819 | 138.58626 | 33675 ft | 328 kts | 294° |
| 2026-05-04 10:11 | 35.97402 | 138.56584 | 33807 ft | 330 kts | 294° |
| 2026-05-04 10:11 | 35.99002 | 138.54531 | 33923 ft | 333 kts | 295° |
| 2026-05-04 10:11 | 36.00611 | 138.52468 | 34037 ft | 335 kts | 295° |
| 2026-05-04 10:11 | 36.02227 | 138.50390 | 34156 ft | 336 kts | 295° |
| 2026-05-04 10:12 | 36.03850 | 138.48304 | 34275 ft | 337 kts | 295° |
| 2026-05-04 10:12 | 36.05473 | 138.46214 | 34403 ft | 338 kts | 295° |
| 2026-05-04 10:12 | 36.07102 | 138.44117 | 34554 ft | 338 kts | 295° |
| 2026-05-04 10:12 | 36.08727 | 138.42027 | 34678 ft | 337 kts | 294° |
| 2026-05-04 10:13 | 36.10347 | 138.39940 | 34790 ft | 335 kts | 294° |
| 2026-05-04 10:13 | 36.11957 | 138.37861 | 34920 ft | 333 kts | 294° |
| 2026-05-04 10:13 | 36.13537 | 138.35820 | 35040 ft | 332 kts | 294° |
| 2026-05-04 10:13 | 36.15103 | 138.33793 | 35160 ft | 332 kts | 294° |
| 2026-05-04 10:14 | 36.16719 | 138.31702 | 35286 ft | 331 kts | 294° |
| 2026-05-04 10:14 | 36.18289 | 138.29674 | 35407 ft | 330 kts | 294° |
| 2026-05-04 10:16 | 36.29372 | 138.15293 | 35799 ft | 336 kts | 294° |
| 2026-05-04 10:16 | 36.30987 | 138.13194 | 35819 ft | 336 kts | 294° |
| 2026-05-04 10:16 | 36.34237 | 138.08961 | 35798 ft | 341 kts | 294° |
| 2026-05-04 10:17 | 36.37415 | 138.04667 | 35806 ft | 330 kts | 289° |
| 2026-05-04 10:19 | 36.48897 | 137.89250 | 33366 ft | 413 kts | 316° |
| 2026-05-04 10:19 | 36.51601 | 137.87876 | 32755 ft | 426 kts | 324° |
| 2026-05-04 10:19 | 36.54500 | 137.86918 | 32135 ft | 437 kts | 332° |
| 2026-05-04 10:19 | 36.57539 | 137.86381 | 31629 ft | 442 kts | 336° |
| 2026-05-04 10:20 | 36.60568 | 137.85934 | 31012 ft | 434 kts | 335° |
| 2026-05-04 10:20 | 36.63570 | 137.85461 | 30425 ft | 443 kts | 335° |
| 2026-05-04 10:20 | 36.66684 | 137.84952 | 29759 ft | 456 kts | 336° |
| 2026-05-04 10:20 | 36.69822 | 137.84518 | 28978 ft | 451 kts | 338° |
| 2026-05-04 10:21 | 36.72905 | 137.84103 | 28201 ft | 440 kts | 337° |
| 2026-05-04 10:21 | 36.75913 | 137.83636 | 27421 ft | 431 kts | 336° |
| 2026-05-04 10:21 | 36.78868 | 137.83156 | 26708 ft | 425 kts | 336° |
| 2026-05-04 10:21 | 36.81778 | 137.82722 | 26108 ft | 418 kts | 337° |
| 2026-05-04 10:22 | 36.87486 | 137.81876 | 25067 ft | 407 kts | 336° |
| 2026-05-04 10:22 | 36.90277 | 137.81447 | 24544 ft | 401 kts | 337° |
| 2026-05-04 10:22 | 36.93030 | 137.81031 | 24060 ft | 395 kts | 337° |
| 2026-05-04 10:23 | 36.95739 | 137.80624 | 23540 ft | 390 kts | 337° |
| 2026-05-04 10:23 | 36.98423 | 137.80215 | 23000 ft | 387 kts | 337° |
| 2026-05-04 10:25 | 37.15588 | 137.75662 | 19705 ft | 330 kts | 316° |
| 2026-05-04 10:25 | 37.17474 | 137.74100 | 19275 ft | 320 kts | 311° |
| 2026-05-04 10:25 | 37.19148 | 137.72332 | 18862 ft | 310 kts | 304° |
| 2026-05-04 10:25 | 37.20588 | 137.70436 | 18466 ft | 289 kts | 299° |
| 2026-05-04 10:26 | 37.21770 | 137.68509 | 18085 ft | 270 kts | 294° |
| 2026-05-04 10:26 | 37.22715 | 137.66611 | 17747 ft | 253 kts | 290° |
| 2026-05-04 10:26 | 37.23482 | 137.64703 | 17418 ft | 237 kts | 286° |
| 2026-05-04 10:26 | 37.24078 | 137.62842 | 17115 ft | 224 kts | 282° |
| 2026-05-04 10:27 | 37.24579 | 137.61172 | 16881 ft | 183 kts | 283° |
| 2026-05-04 10:27 | 37.25001 | 137.59760 | 16697 ft | 169 kts | 282° |
| 2026-05-04 10:27 | 37.25400 | 137.58396 | 16455 ft | 166 kts | 283° |
| 2026-05-04 10:27 | 37.25808 | 137.56999 | 15964 ft | 175 kts | 283° |
| 2026-05-04 10:28 | 37.26240 | 137.55543 | 15497 ft | 181 kts | 284° |
| 2026-05-04 10:28 | 37.26686 | 137.54053 | 15050 ft | 177 kts | 285° |
| 2026-05-04 10:28 | 37.27100 | 137.52683 | 14601 ft | 161 kts | 285° |
| 2026-05-04 10:28 | 37.27492 | 137.51351 | 14157 ft | 158 kts | 285° |
| 2026-05-04 10:29 | 37.27876 | 137.50050 | 13716 ft | 164 kts | 286° |
| 2026-05-04 10:29 | 37.28284 | 137.48671 | 13224 ft | 173 kts | 286° |
| 2026-05-04 10:29 | 37.28711 | 137.47230 | 12747 ft | 180 kts | 286° |
| 2026-05-04 10:29 | 37.29154 | 137.45738 | 12287 ft | 185 kts | 286° |
| 2026-05-04 10:30 | 37.29596 | 137.44256 | 11828 ft | 171 kts | 286° |
| 2026-05-04 10:30 | 37.29991 | 137.42937 | 11373 ft | 153 kts | 285° |
| 2026-05-04 10:30 | 37.30348 | 137.41728 | 10918 ft | 143 kts | 285° |
| 2026-05-04 10:30 | 37.30685 | 137.40586 | 10457 ft | 136 kts | 285° |
| 2026-05-04 10:31 | 37.31008 | 137.39489 | 10012 ft | 132 kts | 284° |
| 2026-05-04 10:31 | 37.31323 | 137.38423 | 9532 ft | 129 kts | 284° |
| 2026-05-04 10:32 | 37.33151 | 137.32227 | 6976 ft | 127 kts | 287° |
| 2026-05-04 10:33 | 37.33450 | 137.31215 | 6596 ft | 120 kts | 287° |
| 2026-05-04 10:33 | 37.33732 | 137.30259 | 6227 ft | 116 kts | 288° |
| 2026-05-04 10:33 | 37.34010 | 137.29315 | 5828 ft | 114 kts | 288° |
| 2026-05-04 10:33 | 37.34283 | 137.28386 | 5431 ft | 113 kts | 288° |
| 2026-05-04 10:34 | 37.34553 | 137.27467 | 5041 ft | 112 kts | 288° |
| 2026-05-04 10:34 | 37.34822 | 137.26556 | 4650 ft | 111 kts | 288° |
| 2026-05-04 10:34 | 37.35088 | 137.25650 | 4251 ft | 110 kts | 289° |
| 2026-05-04 10:34 | 37.35349 | 137.24764 | 3861 ft | 107 kts | 289° |
| 2026-05-04 10:35 | 37.35604 | 137.23897 | 3469 ft | 104 kts | 290° |
| 2026-05-04 10:35 | 37.35853 | 137.23051 | 3074 ft | 102 kts | 290° |
| 2026-05-04 10:35 | 37.36084 | 137.22267 | 2994 ft | 94 kts | 289° |
| 2026-05-04 10:35 | 37.36312 | 137.21493 | 2992 ft | 94 kts | 289° |
| 2026-05-04 10:36 | 37.36542 | 137.20707 | 2887 ft | 99 kts | 289° |
| 2026-05-04 10:36 | 37.36778 | 137.19896 | 2706 ft | 96 kts | 289° |
| 2026-05-04 10:36 | 37.36909 | 137.19088 | 2691 ft | 96 kts | 275° |
| 2026-05-04 10:36 | 37.36825 | 137.18236 | 2688 ft | 101 kts | 261° |
| 2026-05-04 10:37 | 37.36542 | 137.17420 | 2694 ft | 102 kts | 254° |
| 2026-05-04 10:37 | 37.36256 | 137.16604 | 2693 ft | 103 kts | 253° |
| 2026-05-04 10:37 | 37.35984 | 137.15783 | 2692 ft | 102 kts | 257° |
| 2026-05-04 10:37 | 37.35718 | 137.14958 | 2698 ft | 102 kts | 256° |
| 2026-05-04 10:39 | 37.34279 | 137.10704 | 2673 ft | 82 kts | 255° |
| 2026-05-04 10:39 | 37.34049 | 137.10032 | 2680 ft | 85 kts | 257° |
| 2026-05-04 10:39 | 37.33817 | 137.09351 | 2677 ft | 85 kts | 256° |
| 2026-05-04 10:40 | 37.33582 | 137.08667 | 2681 ft | 85 kts | 257° |
| 2026-05-04 10:40 | 37.33347 | 137.07977 | 2611 ft | 86 kts | 256° |
| 2026-05-04 10:40 | 37.33112 | 137.07292 | 2502 ft | 86 kts | 257° |
| 2026-05-04 10:40 | 37.32877 | 137.06607 | 2378 ft | 85 kts | 258° |
| 2026-05-04 10:41 | 37.32651 | 137.05922 | 2253 ft | 86 kts | 257° |
| 2026-05-04 10:41 | 37.32404 | 137.05213 | 2126 ft | 89 kts | 256° |
| 2026-05-04 10:41 | 37.32162 | 137.04500 | 2008 ft | 88 kts | 258° |
| 2026-05-04 10:41 | 37.31920 | 137.03805 | 1883 ft | 86 kts | 259° |
| 2026-05-04 10:42 | 37.31687 | 137.03113 | 1764 ft | 86 kts | 259° |
| 2026-05-04 10:42 | 37.31448 | 137.02412 | 1595 ft | 89 kts | 255° |
| 2026-05-04 10:42 | 37.31196 | 137.01678 | 1502 ft | 92 kts | 256° |
| 2026-05-04 10:42 | 37.30945 | 137.00953 | 1381 ft | 91 kts | 255° |
| 2026-05-04 10:43 | 37.30695 | 137.00213 | 1241 ft | 93 kts | 252° |
| 2026-05-04 10:44 | 37.29402 | 136.96216 | 717 ft | 12 kts | 337° |
| 2026-05-04 10:45 | 37.29473 | 136.96178 | 717 ft | 8 kts | 336° |
| 2026-05-04 10:45 | 37.29521 | 136.96152 | 717 ft | 7 kts | 336° |
| 2026-05-04 10:45 | 37.29558 | 136.96150 | 718 ft | 4 kts | 75° |
| 2026-05-04 10:45 | 37.29564 | 136.96166 | 717 ft | 3 kts | 16° |
| 2026-05-04 10:46 | 37.29575 | 136.96151 | 717 ft | 0 kts | 250° |
| 2026-05-04 10:46 | 37.29575 | 136.96150 | 717 ft | 0 kts | 244° |